Time;durP1;ratioP1;P1;durP2;ratioP2;P2;SDS_P1;SDS_P2;PMS_P1;PMS_P2;Temp;Humidity;BMP_temperature;BMP_pressure;BME280_temperature;BME280_humidity;BME280_pressure;Samples;Min_cycle;Max_cycle;Signal;HPM_P1;HPM_P2
2023/12/17 00:02:16;;;;;;;19.37;15.47;;;;;;;;;;4973392;28;20211;-46
2023/12/17 00:04:42;;;;;;;20.17;16.13;;;;;;;;;;4973302;28;20203;-46
2023/12/17 00:07:08;;;;;;;19.47;15.23;;;;;;;;;;4973353;28;20199;-46
2023/12/17 00:09:34;;;;;;;19.27;15.60;;;;;;;;;;4972740;28;20233;-46
2023/12/17 00:12:00;;;;;;;18.97;15.43;;;;;;;;;;4973041;28;20650;-46
2023/12/17 00:14:26;;;;;;;17.50;14.70;;;;;;;;;;4973207;28;20241;-46
2023/12/17 00:16:53;;;;;;;19.17;15.27;;;;;;;;;;4972304;28;20203;-45
2023/12/17 00:19:19;;;;;;;18.83;14.07;;;;;;;;;;4973168;28;20199;-45
2023/12/17 00:21:45;;;;;;;17.63;13.97;;;;;;;;;;4972700;28;20285;-46
2023/12/17 00:24:11;;;;;;;19.40;15.20;;;;;;;;;;4971282;28;20691;-46
2023/12/17 00:26:37;;;;;;;17.77;14.07;;;;;;;;;;4971483;28;20202;-46
2023/12/17 00:29:03;;;;;;;20.77;14.37;;;;;;;;;;4972802;28;20238;-46
2023/12/17 00:31:29;;;;;;;20.23;14.60;;;;;;;;;;4973091;28;20654;-46
2023/12/17 00:33:56;;;;;;;18.60;15.20;;;;;;;;;;4973094;28;20256;-46
2023/12/17 00:36:22;;;;;;;16.90;14.07;;;;;;;;;;4973027;28;20207;-46
2023/12/17 00:38:48;;;;;;;17.17;14.30;;;;;;;;;;4972977;28;20201;-46
2023/12/17 00:41:14;;;;;;;18.00;14.83;;;;;;;;;;4973075;28;20661;-46
2023/12/17 00:43:40;;;;;;;18.67;14.00;;;;;;;;;;4973040;28;20206;-46
2023/12/17 00:46:06;;;;;;;19.67;14.37;;;;;;;;;;4972842;28;20633;-46
2023/12/17 00:48:32;;;;;;;16.63;13.10;;;;;;;;;;4972802;28;20313;-47
2023/12/17 00:51:00;;;;;;;15.37;12.93;;;;;;;;;;4972795;28;20273;-48
2023/12/17 00:53:26;;;;;;;17.90;13.60;;;;;;;;;;4973013;28;20203;-47
2023/12/17 00:55:52;;;;;;;15.47;13.17;;;;;;;;;;4972780;28;20211;-47
2023/12/17 00:58:18;;;;;;;17.70;14.27;;;;;;;;;;4972829;28;20195;-47
2023/12/17 01:00:44;;;;;;;17.00;13.70;;;;;;;;;;4972745;28;20328;-47
2023/12/17 01:03:10;;;;;;;15.67;13.30;;;;;;;;;;4972767;28;20207;-47
2023/12/17 01:05:37;;;;;;;15.93;12.90;;;;;;;;;;4972478;28;20581;-47
2023/12/17 01:08:04;;;;;;;16.87;13.67;;;;;;;;;;4969270;28;20749;-47
2023/12/17 01:10:30;;;;;;;15.27;11.90;;;;;;;;;;4969162;28;20225;-47
2023/12/17 01:12:56;;;;;;;15.83;13.10;;;;;;;;;;4970841;28;20658;-47
2023/12/17 01:15:22;;;;;;;18.83;12.83;;;;;;;;;;4970864;28;20248;-47
2023/12/17 01:17:48;;;;;;;16.83;13.33;;;;;;;;;;4970769;28;20725;-47
2023/12/17 01:20:14;;;;;;;17.03;12.03;;;;;;;;;;4969160;28;20210;-47
2023/12/17 01:22:40;;;;;;;15.83;12.33;;;;;;;;;;4965604;28;20219;-47
2023/12/17 01:25:08;;;;;;;17.13;12.53;;;;;;;;;;4970622;28;20658;-47
2023/12/17 01:27:34;;;;;;;16.27;12.40;;;;;;;;;;4972155;28;20721;-47
2023/12/17 01:30:00;;;;;;;17.13;13.33;;;;;;;;;;4967119;28;20285;-47
2023/12/17 01:32:26;;;;;;;12.60;11.10;;;;;;;;;;4967424;28;20195;-47
2023/12/17 01:34:52;;;;;;;14.10;11.63;;;;;;;;;;4970766;28;20254;-47
2023/12/17 01:37:18;;;;;;;16.23;12.27;;;;;;;;;;4968900;28;20195;-47
2023/12/17 01:39:44;;;;;;;13.00;11.50;;;;;;;;;;4965449;28;20613;-47
2023/12/17 01:42:11;;;;;;;13.27;11.20;;;;;;;;;;4972412;28;20253;-47
2023/12/17 01:44:38;;;;;;;12.73;10.97;;;;;;;;;;4968923;28;20213;-47
2023/12/17 01:47:04;;;;;;;13.67;10.77;;;;;;;;;;4967288;28;20654;-47
2023/12/17 01:49:30;;;;;;;14.13;11.00;;;;;;;;;;4970448;28;20235;-47
2023/12/17 01:51:56;;;;;;;14.57;11.33;;;;;;;;;;4963538;28;20211;-47
2023/12/17 01:54:22;;;;;;;13.33;11.13;;;;;;;;;;4965392;28;20202;-47
2023/12/17 01:56:48;;;;;;;13.60;10.97;;;;;;;;;;4975315;28;20203;-48
2023/12/17 01:59:16;;;;;;;11.67;10.47;;;;;;;;;;4975550;28;20199;-48
2023/12/17 02:01:43;;;;;;;13.07;11.00;;;;;;;;;;4975390;28;20302;-47
2023/12/17 02:04:09;;;;;;;12.40;10.27;;;;;;;;;;4975562;28;20199;-47
2023/12/17 02:06:35;;;;;;;12.63;11.13;;;;;;;;;;4975241;28;20246;-47
2023/12/17 02:09:01;;;;;;;12.83;10.33;;;;;;;;;;4975017;28;20235;-47
2023/12/17 02:11:27;;;;;;;11.67;10.17;;;;;;;;;;4975349;28;20203;-47
2023/12/17 02:13:53;;;;;;;11.33;10.10;;;;;;;;;;4975196;28;20210;-47
2023/12/17 02:16:20;;;;;;;12.57;10.40;;;;;;;;;;4975054;28;20195;-47
2023/12/17 02:18:46;;;;;;;11.47;9.47;;;;;;;;;;4974920;28;20199;-47
2023/12/17 02:21:12;;;;;;;11.53;10.33;;;;;;;;;;4975085;28;20294;-47
2023/12/17 02:23:40;;;;;;;13.03;11.00;;;;;;;;;;4974940;28;20344;-48
2023/12/17 02:26:06;;;;;;;11.93;10.13;;;;;;;;;;4974980;28;20203;-47
2023/12/17 02:28:32;;;;;;;11.30;9.13;;;;;;;;;;4974583;28;20620;-47
2023/12/17 02:30:58;;;;;;;12.23;10.50;;;;;;;;;;4974720;28;20733;-47
2023/12/17 02:33:24;;;;;;;13.53;10.67;;;;;;;;;;4974869;28;20203;-47
2023/12/17 02:35:50;;;;;;;12.30;10.80;;;;;;;;;;4975058;28;20604;-47
2023/12/17 02:38:16;;;;;;;12.40;11.10;;;;;;;;;;4974646;28;20195;-47
2023/12/17 02:40:45;;;;;;;12.03;10.50;;;;;;;;;;4973783;28;20213;-47
2023/12/17 02:43:11;;;;;;;12.90;10.53;;;;;;;;;;4974677;28;20666;-47
2023/12/17 02:45:37;;;;;;;14.20;10.63;;;;;;;;;;4974516;28;20199;-47
2023/12/17 02:48:03;;;;;;;12.57;10.17;;;;;;;;;;4974448;28;20198;-47
2023/12/17 02:50:29;;;;;;;11.93;9.87;;;;;;;;;;4974453;28;20195;-47
2023/12/17 02:52:55;;;;;;;10.97;9.70;;;;;;;;;;4974423;28;20724;-47
2023/12/17 02:55:21;;;;;;;12.43;10.53;;;;;;;;;;4974440;28;20211;-47
2023/12/17 02:57:49;;;;;;;10.80;9.50;;;;;;;;;;4974204;28;20657;-47
2023/12/17 03:00:15;;;;;;;10.37;9.33;;;;;;;;;;4974429;28;20575;-47
2023/12/17 03:02:41;;;;;;;10.53;8.83;;;;;;;;;;4974249;28;20241;-48
2023/12/17 03:05:07;;;;;;;10.33;9.23;;;;;;;;;;4974241;28;20657;-47
2023/12/17 03:07:33;;;;;;;10.93;8.97;;;;;;;;;;4974042;28;20246;-47
2023/12/17 03:09:59;;;;;;;11.43;9.20;;;;;;;;;;4973939;28;20227;-47
2023/12/17 03:12:25;;;;;;;10.80;9.43;;;;;;;;;;4974088;28;20210;-47
2023/12/17 03:14:52;;;;;;;10.83;9.00;;;;;;;;;;4973873;28;20249;-47
2023/12/17 03:17:18;;;;;;;9.50;8.50;;;;;;;;;;4973969;28;20206;-47
2023/12/17 03:19:44;;;;;;;10.70;8.90;;;;;;;;;;4973799;28;20202;-47
2023/12/17 03:22:10;;;;;;;9.40;8.47;;;;;;;;;;4973848;28;20701;-47
2023/12/17 03:24:36;;;;;;;9.57;8.57;;;;;;;;;;4973797;28;20199;-47
2023/12/17 03:27:02;;;;;;;10.00;8.70;;;;;;;;;;4973443;28;20238;-47
2023/12/17 03:29:29;;;;;;;10.17;9.07;;;;;;;;;;4973806;28;20315;-47
2023/12/17 03:31:58;;;;;;;9.67;8.67;;;;;;;;;;4973777;28;20607;-47
2023/12/17 03:34:23;;;;;;;8.70;7.50;;;;;;;;;;4973832;28;20203;-47
2023/12/17 03:36:49;;;;;;;11.40;8.47;;;;;;;;;;4973514;28;20199;-47
2023/12/17 03:39:15;;;;;;;9.03;8.13;;;;;;;;;;4973655;28;20254;-47
2023/12/17 03:41:41;;;;;;;10.33;8.53;;;;;;;;;;4973611;28;20199;-47
2023/12/17 03:44:07;;;;;;;9.13;8.23;;;;;;;;;;4973722;28;20535;-47
2023/12/17 03:46:34;;;;;;;8.80;8.00;;;;;;;;;;4973713;28;20199;-47
2023/12/17 03:49:01;;;;;;;9.37;8.47;;;;;;;;;;4973285;28;20215;-47
2023/12/17 03:51:27;;;;;;;9.73;8.73;;;;;;;;;;4973253;28;20214;-47
2023/12/17 03:53:53;;;;;;;8.60;7.70;;;;;;;;;;4973326;28;20645;-47
2023/12/17 03:56:22;;;;;;;10.43;8.80;;;;;;;;;;4973468;28;20266;-47
2023/12/17 03:58:48;;;;;;;9.77;7.93;;;;;;;;;;4973158;28;20199;-47
2023/12/17 04:01:14;;;;;;;8.77;7.87;;;;;;;;;;4973096;28;20563;-46
2023/12/17 04:03:40;;;;;;;9.43;8.37;;;;;;;;;;4973240;28;20203;-47
2023/12/17 04:06:08;;;;;;;8.10;7.30;;;;;;;;;;4973022;28;20297;-47
2023/12/17 04:08:34;;;;;;;9.60;8.50;;;;;;;;;;4973035;28;20748;-47
2023/12/17 04:11:00;;;;;;;9.40;8.40;;;;;;;;;;4973085;28;20246;-47
2023/12/17 04:13:26;;;;;;;9.33;8.43;;;;;;;;;;4973286;28;20199;-47
2023/12/17 04:15:52;;;;;;;9.10;8.10;;;;;;;;;;4972989;28;20207;-47
2023/12/17 04:18:18;;;;;;;9.57;8.43;;;;;;;;;;4969636;28;20202;-47
2023/12/17 04:20:44;;;;;;;9.93;8.90;;;;;;;;;;4959153;28;20203;-47
2023/12/17 04:23:12;;;;;;;8.20;7.40;;;;;;;;;;4961245;28;20270;-47
2023/12/17 04:25:38;;;;;;;8.73;7.83;;;;;;;;;;4959547;28;20305;-47
2023/12/17 04:28:04;;;;;;;9.07;8.23;;;;;;;;;;4959323;28;20338;-47
2023/12/17 04:30:30;;;;;;;8.20;7.40;;;;;;;;;;4959421;28;20281;-47
2023/12/17 04:32:56;;;;;;;9.23;7.87;;;;;;;;;;4959575;28;20680;-47
2023/12/17 04:35:22;;;;;;;9.27;8.37;;;;;;;;;;4959547;28;20203;-47
2023/12/17 04:37:48;;;;;;;9.53;8.53;;;;;;;;;;4959214;28;20241;-47
2023/12/17 04:40:16;;;;;;;8.93;8.13;;;;;;;;;;4959461;28;20245;-47
2023/12/17 04:42:42;;;;;;;8.17;7.37;;;;;;;;;;4962988;28;20210;-47
2023/12/17 04:45:08;;;;;;;8.90;8.00;;;;;;;;;;4958558;28;20207;-47
2023/12/17 04:47:34;;;;;;;9.27;8.23;;;;;;;;;;4961128;28;20535;-47
2023/12/17 04:50:01;;;;;;;9.30;8.40;;;;;;;;;;4959069;28;20230;-47
2023/12/17 04:52:27;;;;;;;8.97;8.07;;;;;;;;;;4959379;28;20206;-47
2023/12/17 04:54:53;;;;;;;8.70;7.90;;;;;;;;;;4959285;28;20198;-47
2023/12/17 04:57:20;;;;;;;9.10;7.60;;;;;;;;;;4960887;28;20666;-48
2023/12/17 04:59:46;;;;;;;8.80;7.87;;;;;;;;;;4959128;28;20624;-48
2023/12/17 05:02:12;;;;;;;9.07;8.17;;;;;;;;;;4959296;28;20302;-47
2023/12/17 05:04:38;;;;;;;10.23;8.20;;;;;;;;;;4962063;28;20203;-47
2023/12/17 05:07:04;;;;;;;9.20;7.63;;;;;;;;;;4962752;28;20217;-47
2023/12/17 05:09:30;;;;;;;9.30;8.40;;;;;;;;;;4962799;28;20273;-47
2023/12/17 05:11:56;;;;;;;8.87;7.97;;;;;;;;;;4962866;28;20204;-47
2023/12/17 05:14:24;;;;;;;8.63;7.83;;;;;;;;;;4964530;28;20211;-47
2023/12/17 05:16:50;;;;;;;8.87;7.57;;;;;;;;;;4962692;28;20217;-47
2023/12/17 05:19:16;;;;;;;9.43;7.97;;;;;;;;;;4962704;28;20205;-47
2023/12/17 05:21:41;;;;;;;8.40;7.60;;;;;;;;;;4962682;28;20226;-47
2023/12/17 05:24:07;;;;;;;8.87;7.97;;;;;;;;;;4962555;28;20234;-47
2023/12/17 05:26:33;;;;;;;8.57;7.77;;;;;;;;;;4962483;28;20199;-47
2023/12/17 05:28:59;;;;;;;8.37;7.57;;;;;;;;;;4962281;28;20239;-47
2023/12/17 05:31:27;;;;;;;8.97;7.67;;;;;;;;;;4962569;28;20245;-47
2023/12/17 05:33:53;;;;;;;9.97;8.50;;;;;;;;;;4962424;28;20286;-47
2023/12/17 05:36:19;;;;;;;8.60;7.80;;;;;;;;;;4962482;28;20282;-47
2023/12/17 05:38:45;;;;;;;8.50;7.63;;;;;;;;;;4975717;28;20693;-47
2023/12/17 05:41:11;;;;;;;8.17;7.27;;;;;;;;;;4975977;28;20206;-47
2023/12/17 05:43:37;;;;;;;9.10;7.70;;;;;;;;;;4975679;28;20207;-47
2023/12/17 05:46:04;;;;;;;8.83;7.90;;;;;;;;;;4975549;28;20205;-47
2023/12/17 05:48:31;;;;;;;8.67;7.97;;;;;;;;;;4975461;28;20714;-47
2023/12/17 05:50:57;;;;;;;8.83;8.03;;;;;;;;;;4975568;28;20211;-47
2023/12/17 05:53:23;;;;;;;8.97;8.03;;;;;;;;;;4975613;28;20210;-47
2023/12/17 05:55:49;;;;;;;8.67;7.80;;;;;;;;;;4975472;28;20203;-47
2023/12/17 05:58:15;;;;;;;8.90;8.00;;;;;;;;;;4975594;28;20207;-47
2023/12/17 06:00:41;;;;;;;8.17;7.37;;;;;;;;;;4975598;28;20203;-47
2023/12/17 06:03:07;;;;;;;8.50;7.70;;;;;;;;;;4975384;28;20279;-47
2023/12/17 06:05:34;;;;;;;8.67;7.20;;;;;;;;;;4975323;28;20612;-47
2023/12/17 06:08:00;;;;;;;8.07;7.27;;;;;;;;;;4975367;28;20214;-47
2023/12/17 06:10:26;;;;;;;8.50;7.70;;;;;;;;;;4975300;28;20223;-47
2023/12/17 06:12:52;;;;;;;8.23;7.43;;;;;;;;;;4975214;28;20202;-47
2023/12/17 06:15:18;;;;;;;8.00;7.20;;;;;;;;;;4974029;28;20209;-47
2023/12/17 06:17:44;;;;;;;8.33;7.53;;;;;;;;;;4975254;28;20199;-47
2023/12/17 06:20:11;;;;;;;8.40;7.63;;;;;;;;;;4975048;28;20289;-46
2023/12/17 06:22:38;;;;;;;6.87;6.27;;;;;;;;;;4975042;28;20309;-47
2023/12/17 06:25:04;;;;;;;7.70;7.00;;;;;;;;;;4974950;28;20202;-47
2023/12/17 06:27:31;;;;;;;8.00;7.20;;;;;;;;;;4974751;28;20598;-47
2023/12/17 06:29:57;;;;;;;7.77;7.00;;;;;;;;;;4974814;28;20724;-47
2023/12/17 06:32:23;;;;;;;6.90;6.27;;;;;;;;;;4974937;28;20202;-47
2023/12/17 06:34:49;;;;;;;7.40;6.40;;;;;;;;;;4974688;28;20617;-47
2023/12/17 06:37:15;;;;;;;7.10;6.40;;;;;;;;;;4974858;28;20265;-47
2023/12/17 06:39:43;;;;;;;7.27;6.57;;;;;;;;;;4974873;28;20222;-47
2023/12/17 06:42:09;;;;;;;8.77;5.97;;;;;;;;;;4974697;28;20238;-47
2023/12/17 06:44:35;;;;;;;7.07;6.23;;;;;;;;;;4974723;28;20219;-47
2023/12/17 06:47:01;;;;;;;7.07;6.37;;;;;;;;;;4974497;28;20199;-47
2023/12/17 06:49:27;;;;;;;7.37;6.20;;;;;;;;;;4971083;28;20238;-47
2023/12/17 06:51:53;;;;;;;6.93;6.30;;;;;;;;;;4961029;28;20206;-47
2023/12/17 06:54:19;;;;;;;6.90;6.20;;;;;;;;;;4959407;28;20241;-47
2023/12/17 06:56:46;;;;;;;7.73;6.17;;;;;;;;;;4962610;28;20199;-47
2023/12/17 06:59:12;;;;;;;6.60;6.00;;;;;;;;;;4959379;28;20202;-47
2023/12/17 07:01:38;;;;;;;6.73;6.13;;;;;;;;;;4960778;28;20289;-47
2023/12/17 07:04:04;;;;;;;6.50;5.90;;;;;;;;;;4960603;28;20229;-49
2023/12/17 07:06:30;;;;;;;7.03;6.43;;;;;;;;;;4962248;28;20238;-47
2023/12/17 07:08:57;;;;;;;6.73;6.03;;;;;;;;;;4960693;28;20273;-48
2023/12/17 07:11:23;;;;;;;6.40;5.80;;;;;;;;;;4960791;28;20203;-47
2023/12/17 07:13:50;;;;;;;7.57;6.07;;;;;;;;;;4961152;28;20201;-47
2023/12/17 07:16:26;;;;;;;6.47;5.87;;;;;;;;;;4961970;28;20215;-46
2023/12/17 07:18:52;;;;;;;7.30;6.30;;;;;;;;;;4960449;28;20203;-46
2023/12/17 07:21:18;;;;;;;6.27;5.67;;;;;;;;;;4962103;28;20199;-46
2023/12/17 07:23:44;;;;;;;7.17;6.10;;;;;;;;;;4960458;28;20293;-45
2023/12/17 07:26:10;;;;;;;7.50;6.70;;;;;;;;;;4959733;28;20277;-47
2023/12/17 07:28:37;;;;;;;7.40;6.63;;;;;;;;;;4959934;28;20239;-47
2023/12/17 07:31:04;;;;;;;7.40;6.70;;;;;;;;;;4959902;28;20542;-47
2023/12/17 07:33:30;;;;;;;7.20;6.13;;;;;;;;;;4961397;28;20199;-47
2023/12/17 07:35:56;;;;;;;8.83;7.63;;;;;;;;;;4958355;28;20210;-47
2023/12/17 07:38:22;;;;;;;8.40;7.60;;;;;;;;;;4960040;28;20564;-48
2023/12/17 07:40:48;;;;;;;9.13;8.23;;;;;;;;;;4959726;28;20286;-47
2023/12/17 07:43:14;;;;;;;10.33;8.70;;;;;;;;;;4959309;28;20544;-47
2023/12/17 07:45:40;;;;;;;9.90;8.90;;;;;;;;;;4959888;28;20204;-47
2023/12/17 07:48:07;;;;;;;9.93;8.93;;;;;;;;;;4961372;28;20306;-48
2023/12/17 07:50:34;;;;;;;10.13;9.07;;;;;;;;;;4961207;28;20234;-47
2023/12/17 07:53:00;;;;;;;10.33;8.70;;;;;;;;;;4959549;28;20282;-48
2023/12/17 07:55:26;;;;;;;9.63;8.63;;;;;;;;;;4959930;28;20222;-47
2023/12/17 07:57:52;;;;;;;10.10;9.07;;;;;;;;;;4959480;28;20218;-47
2023/12/17 08:00:19;;;;;;;9.20;8.30;;;;;;;;;;4959732;28;20681;-48
2023/12/17 08:02:45;;;;;;;9.13;8.23;;;;;;;;;;4961132;28;20225;-47
2023/12/17 08:05:12;;;;;;;9.30;8.40;;;;;;;;;;4959579;28;20561;-47
2023/12/17 08:07:38;;;;;;;8.80;7.90;;;;;;;;;;4959569;28;20214;-47
2023/12/17 08:10:05;;;;;;;10.77;9.30;;;;;;;;;;4960936;28;20261;-47
2023/12/17 08:12:31;;;;;;;9.73;8.73;;;;;;;;;;4959539;28;20261;-48
2023/12/17 08:14:57;;;;;;;9.97;9.07;;;;;;;;;;4959631;28;20195;-47
2023/12/17 08:17:23;;;;;;;9.67;8.67;;;;;;;;;;4959603;28;20599;-48
2023/12/17 08:19:49;;;;;;;10.50;9.40;;;;;;;;;;4961102;28;20195;-48
2023/12/17 08:22:17;;;;;;;10.60;9.30;;;;;;;;;;4959116;28;20230;-48
2023/12/17 08:24:43;;;;;;;10.53;9.53;;;;;;;;;;4959464;28;20198;-48
2023/12/17 08:27:10;;;;;;;10.20;9.10;;;;;;;;;;4959100;28;20246;-48
2023/12/17 08:29:36;;;;;;;10.67;9.60;;;;;;;;;;4960902;28;20230;-48
2023/12/17 08:32:02;;;;;;;10.63;9.60;;;;;;;;;;4959151;28;20297;-48
2023/12/17 08:34:31;;;;;;;12.03;10.77;;;;;;;;;;4959254;28;20614;-48
2023/12/17 08:36:57;;;;;;;9.77;8.87;;;;;;;;;;4961108;28;20286;-48
2023/12/17 08:39:25;;;;;;;10.80;9.70;;;;;;;;;;4961693;28;20197;-48
2023/12/17 08:41:52;;;;;;;11.93;10.53;;;;;;;;;;4963061;28;20269;-48
2023/12/17 08:44:20;;;;;;;11.90;10.40;;;;;;;;;;4963484;28;20218;-48
2023/12/17 08:46:46;;;;;;;10.60;9.60;;;;;;;;;;4962930;28;20207;-47
2023/12/17 08:49:12;;;;;;;12.10;10.60;;;;;;;;;;4966412;28;20269;-46
2023/12/17 08:51:40;;;;;;;11.67;9.97;;;;;;;;;;4962982;28;20238;-47
2023/12/17 08:54:06;;;;;;;13.10;11.70;;;;;;;;;;4962689;28;20293;-47
2023/12/17 08:56:33;;;;;;;12.00;10.80;;;;;;;;;;4962815;28;20740;-47
2023/12/17 08:58:59;;;;;;;11.50;10.13;;;;;;;;;;4964353;28;20222;-48
2023/12/17 09:01:25;;;;;;;11.40;10.10;;;;;;;;;;4963028;28;20245;-47
2023/12/17 09:03:51;;;;;;;10.97;9.57;;;;;;;;;;4962673;28;20234;-47
2023/12/17 09:06:17;;;;;;;11.27;10.07;;;;;;;;;;4962613;28;20199;-48
2023/12/17 09:08:43;;;;;;;11.07;9.97;;;;;;;;;;4962583;28;20231;-47
2023/12/17 09:11:09;;;;;;;10.43;9.33;;;;;;;;;;4964371;28;20210;-47
2023/12/17 09:13:37;;;;;;;11.40;10.17;;;;;;;;;;4962765;28;20198;-48
2023/12/17 09:16:03;;;;;;;11.67;9.97;;;;;;;;;;4962425;28;20261;-47
2023/12/17 09:18:29;;;;;;;10.90;9.47;;;;;;;;;;4962662;28;20202;-47
2023/12/17 09:20:55;;;;;;;14.13;9.63;;;;;;;;;;4962478;28;21314;-48
2023/12/17 09:23:21;;;;;;;10.67;9.57;;;;;;;;;;4962712;28;20248;-48
2023/12/17 09:25:47;;;;;;;10.20;9.20;;;;;;;;;;4963995;28;20207;-48
2023/12/17 09:28:13;;;;;;;10.97;9.87;;;;;;;;;;4963851;28;20301;-48
2023/12/17 09:30:41;;;;;;;10.60;9.50;;;;;;;;;;4964016;28;20234;-47
2023/12/17 09:33:07;;;;;;;10.57;9.03;;;;;;;;;;4963861;28;20195;-48
2023/12/17 09:35:36;;;;;;;10.10;9.10;;;;;;;;;;4962026;28;20202;-49
2023/12/17 09:38:03;;;;;;;11.53;9.17;;;;;;;;;;4963709;28;20222;-46
2023/12/17 09:40:29;;;;;;;10.90;9.10;;;;;;;;;;4962180;28;20283;-47
2023/12/17 09:42:55;;;;;;;10.20;9.10;;;;;;;;;;4963785;28;20286;-47
2023/12/17 09:45:21;;;;;;;10.47;9.37;;;;;;;;;;4962004;28;20207;-48
2023/12/17 09:47:48;;;;;;;10.13;8.90;;;;;;;;;;4963627;28;20229;-48
2023/12/17 09:50:14;;;;;;;9.67;8.60;;;;;;;;;;4963260;28;20243;-47
2023/12/17 09:52:42;;;;;;;12.30;9.57;;;;;;;;;;4962016;28;20203;-47
2023/12/17 09:55:09;;;;;;;10.00;9.00;;;;;;;;;;4961778;28;20611;-47
2023/12/17 09:57:35;;;;;;;12.53;10.47;;;;;;;;;;4963407;28;20203;-48
2023/12/17 10:00:03;;;;;;;11.40;10.13;;;;;;;;;;4963461;28;20702;-47
2023/12/17 10:02:29;;;;;;;11.77;10.17;;;;;;;;;;4963791;28;20539;-46
2023/12/17 10:04:56;;;;;;;13.03;11.37;;;;;;;;;;4963346;28;20206;-46
2023/12/17 10:07:22;;;;;;;13.90;12.03;;;;;;;;;;4963278;28;20244;-47
2023/12/17 10:09:48;;;;;;;14.10;11.90;;;;;;;;;;4960060;28;20293;-47
2023/12/17 10:12:15;;;;;;;12.87;11.17;;;;;;;;;;4961494;28;20750;-47
2023/12/17 10:14:41;;;;;;;12.27;10.93;;;;;;;;;;4963462;28;20265;-47
2023/12/17 10:17:07;;;;;;;15.70;13.10;;;;;;;;;;4963086;28;20192;-47
2023/12/17 10:19:33;;;;;;;16.73;12.73;;;;;;;;;;4963256;28;20250;-47
2023/12/17 10:22:05;;;;;;;14.53;13.00;;;;;;;;;;4962942;28;20697;-47
2023/12/17 10:24:38;;;;;;;15.60;13.10;;;;;;;;;;4961391;28;20442;-47
2023/12/17 10:27:06;;;;;;;14.93;13.33;;;;;;;;;;4962722;28;20861;-47
2023/12/17 10:29:33;;;;;;;15.23;13.03;;;;;;;;;;4962788;28;20222;-47
2023/12/17 10:31:59;;;;;;;17.23;14.13;;;;;;;;;;4961104;28;20203;-48
2023/12/17 10:34:28;;;;;;;15.60;13.67;;;;;;;;;;4962930;28;20207;-48
2023/12/17 10:36:54;;;;;;;16.37;12.60;;;;;;;;;;4962739;28;20238;-47
2023/12/17 10:39:22;;;;;;;14.20;12.70;;;;;;;;;;4961093;28;20199;-48
2023/12/17 10:41:48;;;;;;;14.70;13.13;;;;;;;;;;4962617;28;20301;-47
2023/12/17 10:44:14;;;;;;;16.33;14.63;;;;;;;;;;4960675;28;20241;-48
2023/12/17 10:46:42;;;;;;;15.20;13.53;;;;;;;;;;4962979;28;20219;-48
2023/12/17 10:49:08;;;;;;;16.07;14.37;;;;;;;;;;4960738;28;20293;-47
2023/12/17 10:51:35;;;;;;;14.20;12.80;;;;;;;;;;4960686;28;20293;-47
2023/12/17 10:54:01;;;;;;;13.63;12.13;;;;;;;;;;4964164;28;20198;-47
2023/12/17 10:56:30;;;;;;;14.00;12.60;;;;;;;;;;4962911;28;20201;-47
2023/12/17 10:58:57;;;;;;;14.60;12.60;;;;;;;;;;4962650;28;20210;-46
2023/12/17 11:01:23;;;;;;;15.10;13.50;;;;;;;;;;4962157;28;20290;-47
2023/12/17 11:03:49;;;;;;;14.90;13.47;;;;;;;;;;4964362;28;20229;-47
2023/12/17 11:06:15;;;;;;;16.37;14.67;;;;;;;;;;4961060;28;20209;-47
2023/12/17 11:08:41;;;;;;;16.20;14.50;;;;;;;;;;4960619;28;20682;-47
2023/12/17 11:11:07;;;;;;;17.27;15.53;;;;;;;;;;4962409;28;20199;-47
2023/12/17 11:13:35;;;;;;;16.10;13.40;;;;;;;;;;4963822;28;20203;-47
2023/12/17 11:16:20;;;;;;;15.57;13.90;;;;;;;;;;4961848;28;20270;-47
2023/12/17 11:18:46;;;;;;;16.00;14.40;;;;;;;;;;4960383;28;20740;-47
2023/12/17 11:21:14;;;;;;;16.53;14.83;;;;;;;;;;4961937;28;20670;-47
2023/12/17 11:23:40;;;;;;;17.00;15.30;;;;;;;;;;4961979;28;20218;-47
2023/12/17 11:26:06;;;;;;;16.50;14.70;;;;;;;;;;4961929;28;20210;-47
2023/12/17 11:28:32;;;;;;;16.73;15.03;;;;;;;;;;4961856;28;20672;-47
2023/12/17 11:30:59;;;;;;;16.23;14.63;;;;;;;;;;4961693;28;20654;-47
2023/12/17 11:33:26;;;;;;;16.20;14.40;;;;;;;;;;4960397;28;20207;-47
2023/12/17 11:35:52;;;;;;;15.97;14.33;;;;;;;;;;4961658;28;20417;-47
2023/12/17 11:38:20;;;;;;;15.60;13.93;;;;;;;;;;4960185;28;20195;-47
2023/12/17 11:40:46;;;;;;;16.17;14.57;;;;;;;;;;4961811;28;20209;-47
2023/12/17 11:43:12;;;;;;;15.07;13.47;;;;;;;;;;4961764;28;20301;-47
2023/12/17 11:45:41;;;;;;;14.47;13.07;;;;;;;;;;4961963;28;20305;-47
2023/12/17 11:48:09;;;;;;;15.07;13.57;;;;;;;;;;4959975;28;20733;-47
2023/12/17 11:50:42;;;;;;;15.57;13.87;;;;;;;;;;4961619;28;20238;-47
2023/12/17 11:53:08;;;;;;;15.00;13.40;;;;;;;;;;4962007;28;20191;-48
2023/12/17 11:55:40;;;;;;;15.30;13.60;;;;;;;;;;4961454;28;20209;-47
2023/12/17 11:58:06;;;;;;;15.43;13.77;;;;;;;;;;4961353;28;20203;-47
2023/12/17 12:00:32;;;;;;;14.73;13.23;;;;;;;;;;4959858;28;20191;-47
2023/12/17 12:02:58;;;;;;;14.10;12.70;;;;;;;;;;4960226;28;20217;-47
2023/12/17 12:05:26;;;;;;;14.57;13.07;;;;;;;;;;4961649;28;20210;-47
2023/12/17 12:07:53;;;;;;;13.83;12.43;;;;;;;;;;4959594;28;20210;-47
2023/12/17 12:10:19;;;;;;;12.60;11.33;;;;;;;;;;4961510;28;20708;-48
2023/12/17 12:12:45;;;;;;;13.43;12.07;;;;;;;;;;4959573;28;20199;-47
2023/12/17 12:15:11;;;;;;;11.80;10.60;;;;;;;;;;4964658;28;20191;-48
2023/12/17 12:17:38;;;;;;;12.13;10.83;;;;;;;;;;4961291;28;20199;-47
2023/12/17 12:20:05;;;;;;;11.00;9.93;;;;;;;;;;4961031;28;20195;-47
2023/12/17 12:22:33;;;;;;;11.37;9.60;;;;;;;;;;4961405;28;20223;-47
2023/12/17 12:24:59;;;;;;;10.47;9.47;;;;;;;;;;4961142;28;20308;-47
2023/12/17 12:27:25;;;;;;;9.60;8.70;;;;;;;;;;4959312;28;20329;-48
2023/12/17 12:29:52;;;;;;;10.10;9.10;;;;;;;;;;4962618;28;20234;-48
2023/12/17 12:32:25;;;;;;;9.07;8.27;;;;;;;;;;4961574;28;20665;-48
2023/12/17 12:34:53;;;;;;;9.50;8.60;;;;;;;;;;4961212;28;20207;-47
2023/12/17 12:37:30;;;;;;;10.37;9.37;;;;;;;;;;4961135;28;20233;-47
2023/12/17 12:39:57;;;;;;;9.80;8.90;;;;;;;;;;4959624;28;20234;-47
2023/12/17 12:42:23;;;;;;;9.73;8.83;;;;;;;;;;4959486;28;20697;-46
2023/12/17 12:44:50;;;;;;;10.97;9.93;;;;;;;;;;4961035;28;20194;-48
2023/12/17 12:47:15;;;;;;;10.63;9.63;;;;;;;;;;4962517;28;20720;-48
2023/12/17 12:49:41;;;;;;;11.10;10.00;;;;;;;;;;4959986;28;20251;-47
2023/12/17 12:52:07;;;;;;;14.17;12.77;;;;;;;;;;4962591;28;20206;-48
2023/12/17 12:54:34;;;;;;;11.43;10.40;;;;;;;;;;4961131;28;20257;-48
2023/12/17 12:57:01;;;;;;;11.53;10.43;;;;;;;;;;4961046;28;20194;-48
2023/12/17 12:59:27;;;;;;;9.27;8.20;;;;;;;;;;4964503;28;20213;-48
2023/12/17 13:01:54;;;;;;;9.67;8.77;;;;;;;;;;4960833;28;20199;-47
2023/12/17 13:04:20;;;;;;;10.43;9.43;;;;;;;;;;4960675;28;20691;-46
2023/12/17 13:06:46;;;;;;;10.70;9.70;;;;;;;;;;4958596;28;20203;-47
2023/12/17 13:09:12;;;;;;;9.27;8.40;;;;;;;;;;4962230;28;20226;-48
2023/12/17 13:11:38;;;;;;;10.57;9.40;;;;;;;;;;4959206;28;20752;-47
2023/12/17 13:14:06;;;;;;;10.20;9.23;;;;;;;;;;4960635;28;20234;-48
2023/12/17 13:16:34;;;;;;;9.87;8.97;;;;;;;;;;4960937;28;20203;-49
2023/12/17 13:19:00;;;;;;;11.67;10.47;;;;;;;;;;4957188;28;20206;-48
2023/12/17 13:21:26;;;;;;;11.67;10.57;;;;;;;;;;4962562;28;20606;-47
2023/12/17 13:23:52;;;;;;;10.43;9.43;;;;;;;;;;4960836;28;20223;-48
2023/12/17 13:26:18;;;;;;;11.43;10.40;;;;;;;;;;4964295;28;20630;-49
2023/12/17 13:28:44;;;;;;;12.10;9.95;;;;;;;;;;4962483;28;20273;-48
2023/12/17 13:31:11;;;;;;;11.40;10.20;;;;;;;;;;4962945;28;20624;-48
2023/12/17 13:33:37;;;;;;;12.30;9.93;;;;;;;;;;4966013;28;20210;-47
2023/12/17 13:36:05;;;;;;;11.10;9.87;;;;;;;;;;4962184;28;20213;-48
2023/12/17 13:38:31;;;;;;;10.97;9.97;;;;;;;;;;4965654;28;20568;-47
2023/12/17 13:40:57;;;;;;;12.97;11.67;;;;;;;;;;4963824;28;20199;-49
2023/12/17 13:43:23;;;;;;;12.60;10.43;;;;;;;;;;4965701;28;20386;-47
2023/12/17 13:45:49;;;;;;;12.47;11.17;;;;;;;;;;4962093;28;20301;-48
2023/12/17 13:48:17;;;;;;;12.83;11.47;;;;;;;;;;4963598;28;20669;-47
2023/12/17 13:50:43;;;;;;;12.27;11.07;;;;;;;;;;4963636;28;20231;-47
2023/12/17 13:53:09;;;;;;;12.53;11.23;;;;;;;;;;4963909;28;20665;-49
2023/12/17 13:55:35;;;;;;;15.43;11.17;;;;;;;;;;4963744;28;20211;-47
2023/12/17 13:58:01;;;;;;;11.93;10.73;;;;;;;;;;4963332;28;20253;-47
2023/12/17 14:00:27;;;;;;;12.50;11.30;;;;;;;;;;4962010;28;20547;-47
2023/12/17 14:02:53;;;;;;;13.03;11.73;;;;;;;;;;4963849;28;20258;-47
2023/12/17 14:05:21;;;;;;;12.67;11.47;;;;;;;;;;4961657;28;20254;-47
2023/12/17 14:07:47;;;;;;;13.17;11.77;;;;;;;;;;4961692;28;20581;-48
2023/12/17 14:10:13;;;;;;;12.20;11.00;;;;;;;;;;4964786;28;20675;-48
2023/12/17 14:12:40;;;;;;;12.87;11.57;;;;;;;;;;4961768;28;20203;-48
2023/12/17 14:15:06;;;;;;;11.63;10.47;;;;;;;;;;4963083;28;20210;-48
2023/12/17 14:17:32;;;;;;;12.93;11.07;;;;;;;;;;4963228;28;20199;-48
2023/12/17 14:19:58;;;;;;;13.23;11.03;;;;;;;;;;4961352;28;20205;-48
2023/12/17 14:22:27;;;;;;;12.00;10.87;;;;;;;;;;4961367;28;20229;-47
2023/12/17 14:24:53;;;;;;;12.10;10.93;;;;;;;;;;4963089;28;20203;-48